createdAt,value
2023-03-10T00:00:38.407Z,9.37
2023-03-10T00:03:06.365Z,9.12
2023-03-10T00:05:33.928Z,8.77
2023-03-10T00:08:01.429Z,8.95
2023-03-10T00:10:29.173Z,9.64
2023-03-10T00:12:56.588Z,9.91
2023-03-10T00:15:24.055Z,10.06
2023-03-10T00:17:55.524Z,10.08
2023-03-10T00:20:23.362Z,9.55
2023-03-10T00:22:50.797Z,10.89
2023-03-10T00:25:18.606Z,10.99
2023-03-10T00:27:45.992Z,10.07
2023-03-10T00:30:13.565Z,8.84
2023-03-10T00:32:41.250Z,8.04
2023-03-10T00:35:08.988Z,8.03
2023-03-10T00:37:38.174Z,7.24
2023-03-10T00:40:09.991Z,7.00
2023-03-10T00:42:37.370Z,6.81
2023-03-10T00:45:05.172Z,6.79
2023-03-10T00:47:32.989Z,6.66
2023-03-10T00:50:00.380Z,6.83
2023-03-10T00:52:32.353Z,6.70
2023-03-10T00:55:00.145Z,6.82
2023-03-10T00:57:27.563Z,7.34
2023-03-10T00:59:55.104Z,7.57
2023-03-10T01:02:22.788Z,7.37
2023-03-10T01:04:50.822Z,7.31
2023-03-10T01:07:18.205Z,7.33
2023-03-10T01:09:46.298Z,8.59
2023-03-10T01:12:13.773Z,8.17
2023-03-10T01:14:41.141Z,7.34
2023-03-10T01:17:08.883Z,7.24
2023-03-10T01:19:36.304Z,7.16
2023-03-10T01:22:03.694Z,6.97
2023-03-10T01:24:31.427Z,7.23
2023-03-10T01:26:58.864Z,7.47
2023-03-10T01:29:27.136Z,7.36
2023-03-10T01:31:56.137Z,7.52
2023-03-10T01:34:23.739Z,7.61
2023-03-10T01:36:51.148Z,8.12
2023-03-10T01:39:18.777Z,8.03
2023-03-10T01:41:46.187Z,7.75
2023-03-10T01:44:16.746Z,7.32
2023-03-10T01:46:54.062Z,6.92
2023-03-10T01:49:28.459Z,6.49
2023-03-10T01:52:03.955Z,5.60
2023-03-10T01:55:10.251Z,5.49
2023-03-10T01:57:46.612Z,5.32
2023-03-10T02:00:16.218Z,5.26
2023-03-10T02:03:08.083Z,5.44
2023-03-10T02:05:58.474Z,5.83
2023-03-10T02:08:31.395Z,6.14
2023-03-10T02:10:59.710Z,6.14
2023-03-10T02:13:27.482Z,6.58
2023-03-10T02:15:55.021Z,7.14
2023-03-10T02:18:22.609Z,7.40
2023-03-10T02:21:02.564Z,8.58
2023-03-10T02:24:03.862Z,8.95
2023-03-10T02:27:03.142Z,8.85
2023-03-10T02:29:38.448Z,7.00
2023-03-10T02:32:11.495Z,6.29
2023-03-10T02:34:39.649Z,5.72
2023-03-10T02:37:07.054Z,5.40
2023-03-10T02:39:37.053Z,5.17
2023-03-10T02:42:06.056Z,4.64
2023-03-10T02:44:33.812Z,4.70
2023-03-10T02:47:01.469Z,4.79
2023-03-10T02:49:29.054Z,4.68
2023-03-10T02:51:57.514Z,4.76
2023-03-10T02:54:25.227Z,5.08
2023-03-10T02:56:52.653Z,4.89
2023-03-10T02:59:20.199Z,4.97
2023-03-10T03:01:48.246Z,5.49
2023-03-10T03:04:17.885Z,5.65
2023-03-10T03:06:45.813Z,6.60
2023-03-10T03:09:13.674Z,7.65
2023-03-10T03:11:41.364Z,7.40
2023-03-10T03:14:09.332Z,7.53
2023-03-10T03:16:38.176Z,7.24
2023-03-10T03:19:06.306Z,7.33
2023-03-10T03:21:33.815Z,6.89
2023-03-10T03:24:01.458Z,6.98
2023-03-10T03:26:28.956Z,6.93
2023-03-10T03:28:57.371Z,6.77
2023-03-10T03:31:26.397Z,6.72
2023-03-10T03:33:54.350Z,5.99
2023-03-10T03:36:22.340Z,6.12
2023-03-10T03:38:51.165Z,6.08
2023-03-10T03:41:18.951Z,5.71
2023-03-10T03:43:46.517Z,5.77
2023-03-10T03:46:14.392Z,5.36
2023-03-10T03:48:41.972Z,4.52
2023-03-10T03:51:09.563Z,3.93
2023-03-10T03:53:37.458Z,4.01
2023-03-10T03:56:05.404Z,4.00
2023-03-10T03:58:33.837Z,4.91
2023-03-10T04:01:01.830Z,6.04
2023-03-10T04:03:30.135Z,6.60
2023-03-10T04:05:57.870Z,6.83
2023-03-10T04:08:25.873Z,6.88
2023-03-10T04:10:55.304Z,6.26
2023-03-10T04:13:23.066Z,6.01
2023-03-10T04:15:56.351Z,5.63
2023-03-10T04:18:24.518Z,5.46
2023-03-10T04:20:52.028Z,5.62
2023-03-10T04:23:20.333Z,5.26
2023-03-10T04:25:49.217Z,4.49
2023-03-10T04:28:16.706Z,4.41
2023-03-10T04:30:45.608Z,4.21
2023-03-10T04:33:13.987Z,4.72
2023-03-10T04:35:42.789Z,5.92
2023-03-10T04:38:10.603Z,6.13
2023-03-10T04:40:38.288Z,6.10
2023-03-10T04:43:05.894Z,6.17
2023-03-10T04:45:33.386Z,6.35
2023-03-10T04:48:01.057Z,6.17
2023-03-10T04:50:28.592Z,5.52
2023-03-10T04:52:56.330Z,4.86
2023-03-10T04:55:24.267Z,4.87
2023-03-10T04:57:51.886Z,5.77
2023-03-10T05:00:20.108Z,5.99
2023-03-10T05:02:48.657Z,6.04
2023-03-10T05:05:16.302Z,6.24
2023-03-10T05:07:44.007Z,6.63
2023-03-10T05:10:12.880Z,7.04
2023-03-10T05:12:42.247Z,6.55
2023-03-10T05:15:10.933Z,6.19
2023-03-10T05:17:38.787Z,5.36
2023-03-10T05:20:09.485Z,4.90
2023-03-10T05:22:38.228Z,4.67
2023-03-10T05:25:10.113Z,5.44
2023-03-10T05:27:38.503Z,5.11
2023-03-10T05:30:08.400Z,4.48
2023-03-10T05:32:37.791Z,4.42
2023-03-10T05:35:05.724Z,4.93
2023-03-10T05:37:39.357Z,5.55
2023-03-10T05:40:09.027Z,6.76
2023-03-10T05:42:36.812Z,5.90
2023-03-10T05:45:05.504Z,5.69
2023-03-10T05:47:33.911Z,4.98
2023-03-10T05:50:01.776Z,4.63
2023-03-10T05:52:30.418Z,4.58
2023-03-10T05:54:57.996Z,5.09
2023-03-10T05:57:25.630Z,5.00
2023-03-10T05:59:53.025Z,5.13
2023-03-10T06:02:20.569Z,5.14
2023-03-10T06:04:48.305Z,5.23
2023-03-10T06:07:15.739Z,4.99
2023-03-10T06:09:43.276Z,5.94
2023-03-10T06:12:11.010Z,6.16
2023-03-10T06:14:38.599Z,6.35
2023-03-10T06:17:06.026Z,6.08
2023-03-10T06:19:33.811Z,5.71
2023-03-10T06:22:01.188Z,5.76
2023-03-10T06:24:29.597Z,6.27
2023-03-10T06:26:57.458Z,6.64
2023-03-10T06:29:24.880Z,7.12
2023-03-10T06:31:52.630Z,7.01
2023-03-10T06:34:20.382Z,7.08
2023-03-10T06:36:48.033Z,7.04
2023-03-10T06:39:15.540Z,7.27
2023-03-10T06:41:43.493Z,7.07
2023-03-10T06:44:19.001Z,7.41
2023-03-10T06:46:47.137Z,7.36
2023-03-10T06:49:14.556Z,7.39
2023-03-10T06:51:42.025Z,7.82
2023-03-10T06:54:09.657Z,7.98
2023-03-10T06:56:37.035Z,8.17
2023-03-10T06:59:04.564Z,8.24
2023-03-10T07:01:33.539Z,8.43
2023-03-10T07:04:01.456Z,8.50
2023-03-10T07:06:29.102Z,8.43
2023-03-10T07:08:56.883Z,8.89
2023-03-10T07:11:25.596Z,9.27
2023-03-10T07:13:53.982Z,9.21
2023-03-10T07:16:22.303Z,9.25
2023-03-10T07:18:49.960Z,9.55
2023-03-10T07:21:19.190Z,9.49
2023-03-10T07:23:46.965Z,9.62
2023-03-10T07:26:15.597Z,9.88
2023-03-10T07:28:43.035Z,9.86
2023-03-10T07:31:13.539Z,9.87
2023-03-10T07:33:41.221Z,9.91
2023-03-10T07:36:11.154Z,10.00
2023-03-10T07:38:39.397Z,10.21
2023-03-10T07:41:12.191Z,10.56
2023-03-10T07:43:39.995Z,10.35
2023-03-10T07:46:10.301Z,10.54
2023-03-10T07:48:37.860Z,10.84
2023-03-10T07:51:05.921Z,11.24
2023-03-10T07:53:34.012Z,11.17
2023-03-10T07:56:08.303Z,11.53
2023-03-10T07:58:36.817Z,11.53
2023-03-10T08:01:05.381Z,11.87
2023-03-10T08:03:34.257Z,11.81
2023-03-10T08:06:02.526Z,11.95
2023-03-10T08:08:29.990Z,12.15
2023-03-10T08:11:06.123Z,12.07
2023-03-10T08:13:33.822Z,12.07
2023-03-10T08:16:02.489Z,11.91
2023-03-10T08:18:31.485Z,12.51
2023-03-10T08:20:59.764Z,12.84
2023-03-10T08:23:27.593Z,13.45
2023-03-10T08:25:55.603Z,13.24
2023-03-10T08:28:23.108Z,13.42
2023-03-10T08:31:03.679Z,13.70
2023-03-10T08:33:32.486Z,13.84
2023-03-10T08:36:11.908Z,14.12
2023-03-10T08:38:39.730Z,14.50
2023-03-10T08:41:13.132Z,14.18
2023-03-10T08:43:40.795Z,14.30
2023-03-10T08:46:09.824Z,14.90
2023-03-10T08:48:37.655Z,14.99
2023-03-10T08:51:06.449Z,15.51
2023-03-10T08:53:35.880Z,15.18
2023-03-10T08:56:04.319Z,14.72
2023-03-10T08:58:32.338Z,14.84
2023-03-10T09:01:00.551Z,14.85
2023-03-10T09:03:31.102Z,15.08
2023-03-10T09:05:59.201Z,14.44
2023-03-10T09:08:27.857Z,14.87
2023-03-10T09:10:55.383Z,15.19
2023-03-10T09:13:22.884Z,15.57
2023-03-10T09:15:52.950Z,15.35
2023-03-10T09:18:21.069Z,16.36
2023-03-10T09:20:48.598Z,16.19
2023-03-10T09:23:16.818Z,15.78
2023-03-10T09:25:44.276Z,15.65
2023-03-10T09:28:12.015Z,16.08
2023-03-10T09:30:43.014Z,16.42
2023-03-10T09:33:18.587Z,16.84
2023-03-10T09:35:52.774Z,17.14
2023-03-10T09:38:25.672Z,17.06
2023-03-10T09:41:18.951Z,17.05
2023-03-10T09:43:54.356Z,16.88
2023-03-10T09:46:46.240Z,16.91
2023-03-10T09:49:26.822Z,17.41
2023-03-10T09:51:54.488Z,17.19
2023-03-10T09:54:49.092Z,17.14
2023-03-10T09:57:19.188Z,17.89
2023-03-10T09:59:47.880Z,18.38
2023-03-10T10:02:36.844Z,18.06
2023-03-10T10:05:12.801Z,18.18
2023-03-10T10:07:47.201Z,18.42
2023-03-10T10:10:25.995Z,17.88
2023-03-10T10:12:54.799Z,18.34
2023-03-10T10:15:25.226Z,18.63
2023-03-10T10:18:08.665Z,18.89
2023-03-10T10:20:50.434Z,18.80
2023-03-10T10:23:37.505Z,18.52
2023-03-10T10:26:32.897Z,19.24
2023-03-10T10:29:07.073Z,19.40
2023-03-10T10:31:36.159Z,19.38
2023-03-10T10:34:06.755Z,19.95
2023-03-10T10:36:36.829Z,19.76
2023-03-10T10:39:21.560Z,19.54
2023-03-10T10:41:49.203Z,18.98
2023-03-10T10:44:17.942Z,18.90
2023-03-10T10:46:56.533Z,17.74
2023-03-10T10:49:29.504Z,17.27
2023-03-10T10:52:02.881Z,17.02
2023-03-10T10:54:43.745Z,17.05
2023-03-10T10:57:20.122Z,17.54
2023-03-10T10:59:47.955Z,18.07
2023-03-10T11:02:33.374Z,17.96
2023-03-10T11:05:14.355Z,17.97
2023-03-10T11:07:42.094Z,18.42
2023-03-10T11:10:18.283Z,18.50
2023-03-10T11:13:06.377Z,18.44
2023-03-10T11:15:37.103Z,19.03
2023-03-10T11:18:17.457Z,18.69
2023-03-10T11:20:51.991Z,19.59
2023-03-10T11:23:26.923Z,19.55
2023-03-10T11:26:16.360Z,19.37
2023-03-10T11:28:49.875Z,19.21
2023-03-10T11:31:22.508Z,19.03
2023-03-10T11:34:15.121Z,19.03
2023-03-10T11:36:57.915Z,18.88
2023-03-10T11:39:51.809Z,19.05
2023-03-10T11:42:33.454Z,19.26
2023-03-10T11:45:23.235Z,20.01
2023-03-10T11:47:54.641Z,19.30
2023-03-10T11:50:40.278Z,20.70
2023-03-10T11:53:38.638Z,20.80
2023-03-10T11:56:08.798Z,21.10
2023-03-10T11:58:43.171Z,20.11
2023-03-10T12:01:15.137Z,20.61
2023-03-10T12:03:55.807Z,21.11
2023-03-10T12:06:48.374Z,20.82
2023-03-10T12:09:23.198Z,20.63
2023-03-10T12:11:50.428Z,20.89
2023-03-10T12:14:18.150Z,20.87
2023-03-10T12:16:45.738Z,20.74
2023-03-10T12:19:13.293Z,21.50
2023-03-10T12:21:40.940Z,20.99
2023-03-10T12:24:45.550Z,21.11
2023-03-10T12:27:15.286Z,20.93
2023-03-10T12:29:43.755Z,20.34
2023-03-10T12:32:38.921Z,20.55
2023-03-10T12:35:32.425Z,20.15
2023-03-10T12:38:22.815Z,19.39
2023-03-10T12:40:51.863Z,19.49
2023-03-10T12:43:44.405Z,18.97
2023-03-10T12:46:19.312Z,19.48
2023-03-10T12:48:50.747Z,19.13
2023-03-10T12:51:22.698Z,19.68
2023-03-10T12:54:34.745Z,20.04
2023-03-10T12:57:14.415Z,19.90
2023-03-10T12:59:56.288Z,19.76
2023-03-10T13:02:31.948Z,20.64
2023-03-10T13:05:06.201Z,20.35
2023-03-10T13:07:35.432Z,20.51
2023-03-10T13:10:03.575Z,20.84
2023-03-10T13:12:46.423Z,20.74
2023-03-10T13:15:26.433Z,20.53
2023-03-10T13:17:56.988Z,20.34
2023-03-10T13:20:24.783Z,20.17
2023-03-10T13:22:59.415Z,19.89
2023-03-10T13:25:26.990Z,18.91
2023-03-10T13:27:57.362Z,18.78
2023-03-10T13:30:29.202Z,18.48
2023-03-10T13:32:58.420Z,18.80
2023-03-10T13:35:29.581Z,18.68
2023-03-10T13:38:19.014Z,19.27
2023-03-10T13:40:50.567Z,19.42
2023-03-10T13:43:34.760Z,19.79
2023-03-10T13:46:04.790Z,20.19
2023-03-10T13:48:33.992Z,20.11
2023-03-10T13:51:05.051Z,19.40
2023-03-10T13:53:32.724Z,19.51
2023-03-10T13:55:59.880Z,18.74
2023-03-10T13:58:27.271Z,18.98
2023-03-10T14:00:57.228Z,18.72
2023-03-10T14:03:24.762Z,18.24
2023-03-10T14:05:52.280Z,17.84
2023-03-10T14:08:28.576Z,17.87
2023-03-10T14:11:16.051Z,17.91
2023-03-10T14:13:44.149Z,18.37
2023-03-10T14:16:12.267Z,18.13
2023-03-10T14:18:40.549Z,18.00
2023-03-10T14:21:24.204Z,17.30
2023-03-10T14:23:53.520Z,18.10
2023-03-10T14:26:20.974Z,18.21
2023-03-10T14:28:48.401Z,18.25
2023-03-10T14:31:23.309Z,17.66
2023-03-10T14:33:51.756Z,17.61
2023-03-10T14:36:19.386Z,17.67
2023-03-10T14:38:46.636Z,17.83
2023-03-10T14:41:14.369Z,18.33
2023-03-10T14:43:42.030Z,17.06
2023-03-10T14:46:10.224Z,17.40
2023-03-10T14:48:39.879Z,17.77
2023-03-10T14:51:13.192Z,17.32
2023-03-10T14:53:42.525Z,16.99
2023-03-10T14:56:12.024Z,17.18
2023-03-10T14:58:49.401Z,16.43
2023-03-10T15:01:17.660Z,16.19
2023-03-10T15:03:45.025Z,16.31
2023-03-10T15:06:13.065Z,16.60
2023-03-10T15:08:41.356Z,16.68
2023-03-10T15:11:08.545Z,16.45
2023-03-10T15:13:36.507Z,16.33
2023-03-10T15:16:04.715Z,15.96
2023-03-10T15:18:31.982Z,15.53
2023-03-10T15:21:00.429Z,15.39
2023-03-10T15:23:28.144Z,15.27
2023-03-10T15:25:56.667Z,15.12
2023-03-10T15:28:23.976Z,15.03
2023-03-10T15:30:51.715Z,15.04
2023-03-10T15:33:19.337Z,15.01
2023-03-10T15:35:46.857Z,14.98
2023-03-10T15:38:15.054Z,14.94
2023-03-10T15:40:42.604Z,14.73
2023-03-10T15:43:09.942Z,14.80
2023-03-10T15:45:41.691Z,14.64
2023-03-10T15:48:09.303Z,14.58
2023-03-10T15:50:37.017Z,14.44
2023-03-10T15:53:04.982Z,14.35
2023-03-10T15:55:32.334Z,14.32
2023-03-10T15:57:59.542Z,14.19
2023-03-10T16:00:27.517Z,13.99
2023-03-10T16:02:55.411Z,13.98
2023-03-10T16:05:22.950Z,13.85
2023-03-10T16:07:51.265Z,13.75
2023-03-10T16:10:20.882Z,13.72
2023-03-10T16:12:48.260Z,13.66
2023-03-10T16:15:18.109Z,13.65
2023-03-10T16:17:46.071Z,13.57
2023-03-10T16:20:14.008Z,13.53
2023-03-10T16:22:42.940Z,13.52
2023-03-10T16:25:12.405Z,13.52
2023-03-10T16:27:39.925Z,13.52
2023-03-10T16:30:08.132Z,13.53
2023-03-10T16:32:36.379Z,13.50
2023-03-10T16:35:04.204Z,13.62
2023-03-10T16:37:31.612Z,13.55
2023-03-10T16:39:59.282Z,13.51
2023-03-10T16:42:26.912Z,13.68
2023-03-10T16:44:57.382Z,13.65
2023-03-10T16:47:25.208Z,13.64
2023-03-10T16:49:52.430Z,13.70
2023-03-10T16:52:20.107Z,13.84
2023-03-10T16:54:48.127Z,14.62
2023-03-10T16:57:15.816Z,14.89
2023-03-10T16:59:44.918Z,14.50
2023-03-10T17:02:14.386Z,14.33
2023-03-10T17:04:43.037Z,14.24
2023-03-10T17:07:13.615Z,14.08
2023-03-10T17:09:42.614Z,14.20
2023-03-10T17:12:10.243Z,13.76
2023-03-10T17:14:38.254Z,13.39
2023-03-10T17:17:07.798Z,13.31
2023-03-10T17:19:35.747Z,13.14
2023-03-10T17:22:03.022Z,12.98
2023-03-10T17:24:32.605Z,12.99
2023-03-10T17:27:00.037Z,12.92
2023-03-10T17:29:27.710Z,12.96
2023-03-10T17:31:55.794Z,13.17
2023-03-10T17:34:23.588Z,13.07
2023-03-10T17:36:51.284Z,13.08
2023-03-10T17:39:21.325Z,13.55
2023-03-10T17:41:49.165Z,13.26
2023-03-10T17:44:17.196Z,13.63
2023-03-10T17:46:46.320Z,13.44
2023-03-10T17:49:14.988Z,13.73
2023-03-10T17:51:44.464Z,13.66
2023-03-10T17:54:13.240Z,13.40
2023-03-10T17:56:41.083Z,13.84
2023-03-10T17:59:09.531Z,13.93
2023-03-10T18:01:38.125Z,14.22
2023-03-10T18:04:06.116Z,14.07
2023-03-10T18:06:35.016Z,14.63
2023-03-10T18:09:04.750Z,14.85
2023-03-10T18:11:33.094Z,13.68
2023-03-10T18:14:03.503Z,13.93
2023-03-10T18:16:33.486Z,13.31
2023-03-10T18:19:01.541Z,13.14
2023-03-10T18:21:28.813Z,12.58
2023-03-10T18:23:56.650Z,12.66
2023-03-10T18:26:27.387Z,13.16
2023-03-10T18:28:55.853Z,13.73
2023-03-10T18:31:25.085Z,13.91
2023-03-10T18:33:54.347Z,14.05
2023-03-10T18:36:24.173Z,14.02
2023-03-10T18:38:53.437Z,13.76
2023-03-10T18:41:24.703Z,13.53
2023-03-10T18:43:55.631Z,13.68
2023-03-10T18:46:23.597Z,13.87
2023-03-10T18:48:58.854Z,14.45
2023-03-10T18:51:27.218Z,14.43
2023-03-10T18:53:55.355Z,14.65
2023-03-10T18:56:26.278Z,15.21
2023-03-10T18:58:54.435Z,14.82
2023-03-10T19:01:22.984Z,13.85
2023-03-10T19:03:51.149Z,12.28
2023-03-10T19:06:21.073Z,12.13
2023-03-10T19:08:50.772Z,12.23
2023-03-10T19:11:23.059Z,12.48
2023-03-10T19:13:51.876Z,13.54
2023-03-10T19:16:21.895Z,13.44
2023-03-10T19:18:50.091Z,12.98
2023-03-10T19:21:18.107Z,13.47
2023-03-10T19:23:46.897Z,13.74
2023-03-10T19:26:15.545Z,13.88
2023-03-10T19:28:43.825Z,13.86
2023-03-10T19:31:15.662Z,13.67
2023-03-10T19:33:43.803Z,13.24
2023-03-10T19:36:13.602Z,13.12
2023-03-10T19:38:42.284Z,13.22
2023-03-10T19:41:17.767Z,13.11
2023-03-10T19:43:46.875Z,13.07
2023-03-10T19:46:15.141Z,13.92
2023-03-10T19:48:44.704Z,13.40
2023-03-10T19:51:24.517Z,13.13
2023-03-10T19:53:52.647Z,13.27
2023-03-10T19:56:21.535Z,12.72
2023-03-10T19:58:51.277Z,12.36
2023-03-10T20:01:23.129Z,12.37
2023-03-10T20:03:53.512Z,12.51
2023-03-10T20:06:22.384Z,13.40
2023-03-10T20:08:52.408Z,12.83
2023-03-10T20:11:21.713Z,12.31
2023-03-10T20:13:50.849Z,12.54
2023-03-10T20:16:20.672Z,12.34
2023-03-10T20:18:49.365Z,11.49
2023-03-10T20:21:17.716Z,11.41
2023-03-10T20:23:48.067Z,11.51
2023-03-10T20:26:16.928Z,11.97
2023-03-10T20:28:45.585Z,12.58
2023-03-10T20:31:23.174Z,12.89
2023-03-10T20:33:53.047Z,12.86
2023-03-10T20:36:21.306Z,13.07
2023-03-10T20:38:49.410Z,13.08
2023-03-10T20:41:17.836Z,13.02
2023-03-10T20:43:45.865Z,13.01
2023-03-10T20:46:14.055Z,13.07
2023-03-10T20:48:43.835Z,13.74
2023-03-10T20:51:15.468Z,13.21
2023-03-10T20:53:44.804Z,11.72
2023-03-10T20:56:14.373Z,12.56
2023-03-10T20:58:43.816Z,12.04
2023-03-10T21:01:15.858Z,10.77
2023-03-10T21:03:44.058Z,10.75
2023-03-10T21:06:12.736Z,11.27
2023-03-10T21:08:41.111Z,11.83
2023-03-10T21:11:08.462Z,11.18
2023-03-10T21:13:36.315Z,11.43
2023-03-10T21:16:03.573Z,10.98
2023-03-10T21:18:32.057Z,10.53
2023-03-10T21:21:02.877Z,10.07
2023-03-10T21:23:40.821Z,10.67
2023-03-10T21:26:18.312Z,10.54
2023-03-10T21:28:46.736Z,10.41
2023-03-10T21:31:15.659Z,10.28
2023-03-10T21:33:43.721Z,11.34
2023-03-10T21:36:12.776Z,11.79
2023-03-10T21:38:41.382Z,12.18
2023-03-10T21:41:09.061Z,11.92
2023-03-10T21:43:37.606Z,10.59
2023-03-10T21:46:05.125Z,11.66
2023-03-10T21:48:32.654Z,11.37
2023-03-10T21:51:00.121Z,11.79
2023-03-10T21:53:27.629Z,11.26
2023-03-10T21:55:55.550Z,10.93
2023-03-10T21:58:25.111Z,9.96
2023-03-10T22:00:55.709Z,9.82
2023-03-10T22:03:23.556Z,10.08
2023-03-10T22:05:50.771Z,10.42
2023-03-10T22:08:18.040Z,10.30
2023-03-10T22:10:45.908Z,10.60
2023-03-10T22:13:13.069Z,9.79
2023-03-10T22:15:40.313Z,9.79
2023-03-10T22:18:07.855Z,10.19
2023-03-10T22:20:35.018Z,10.45
2023-03-10T22:23:02.152Z,10.63
2023-03-10T22:25:29.593Z,10.90
2023-03-10T22:27:56.954Z,10.75
2023-03-10T22:30:24.863Z,10.22
2023-03-10T22:32:52.407Z,10.00
2023-03-10T22:35:22.071Z,10.16
2023-03-10T22:37:51.333Z,10.33
2023-03-10T22:40:19.833Z,10.34
2023-03-10T22:42:47.049Z,10.11
2023-03-10T22:45:27.170Z,9.80
2023-03-10T22:47:58.474Z,10.07
2023-03-10T22:50:27.374Z,9.86
2023-03-10T22:52:54.835Z,9.70
2023-03-10T22:55:23.790Z,9.90
2023-03-10T22:57:51.358Z,9.91
2023-03-10T23:00:20.361Z,10.77
2023-03-10T23:02:47.973Z,10.37
2023-03-10T23:05:16.088Z,10.42
2023-03-10T23:07:43.712Z,10.42
2023-03-10T23:10:15.300Z,10.47
2023-03-10T23:12:44.349Z,10.90
2023-03-10T23:15:24.714Z,10.35
2023-03-10T23:17:56.125Z,10.52
2023-03-10T23:20:27.089Z,10.30
2023-03-10T23:22:55.342Z,10.50
2023-03-10T23:25:30.305Z,10.28
2023-03-10T23:27:58.035Z,10.14
2023-03-10T23:30:25.547Z,10.43
2023-03-10T23:32:52.866Z,9.72
2023-03-10T23:35:21.928Z,10.06
2023-03-10T23:37:49.585Z,9.82
2023-03-10T23:40:18.024Z,10.15
2023-03-10T23:42:45.637Z,10.18
2023-03-10T23:45:14.684Z,10.13
2023-03-10T23:47:41.981Z,10.20
2023-03-10T23:50:11.442Z,10.21
2023-03-10T23:52:38.569Z,10.36
2023-03-10T23:55:05.954Z,10.45
2023-03-10T23:57:33.325Z,10.30
